sensor_id;sensor_type;location;lat;lon;timestamp;P1;durP1;ratioP1;P2;durP2;ratioP2
76656;SDS011;65576;47.714;9.414;2022-12-07T00:01:18;8.85;;;4.82;;
76656;SDS011;65576;47.714;9.414;2022-12-07T00:03:48;10.18;;;5.53;;
76656;SDS011;65576;47.714;9.414;2022-12-07T00:06:15;15.23;;;8.60;;
76656;SDS011;65576;47.714;9.414;2022-12-07T00:08:42;8.35;;;5.15;;
76656;SDS011;65576;47.714;9.414;2022-12-07T00:11:09;9.88;;;6.95;;
76656;SDS011;65576;47.714;9.414;2022-12-07T00:13:36;14.98;;;5.35;;
76656;SDS011;65576;47.714;9.414;2022-12-07T00:16:03;12.68;;;7.10;;
76656;SDS011;65576;47.714;9.414;2022-12-07T00:18:40;9.80;;;5.07;;
76656;SDS011;65576;47.714;9.414;2022-12-07T00:21:06;8.63;;;4.90;;
76656;SDS011;65576;47.714;9.414;2022-12-07T00:23:36;9.52;;;6.20;;
76656;SDS011;65576;47.714;9.414;2022-12-07T00:26:03;8.48;;;6.00;;
76656;SDS011;65576;47.714;9.414;2022-12-07T00:28:33;11.20;;;5.90;;
76656;SDS011;65576;47.714;9.414;2022-12-07T00:31:02;9.88;;;5.35;;
76656;SDS011;65576;47.714;9.414;2022-12-07T00:33:28;12.57;;;6.45;;
76656;SDS011;65576;47.714;9.414;2022-12-07T00:35:57;8.90;;;4.95;;
76656;SDS011;65576;47.714;9.414;2022-12-07T00:38:24;12.30;;;6.53;;
76656;SDS011;65576;47.714;9.414;2022-12-07T00:40:56;8.55;;;5.43;;
76656;SDS011;65576;47.714;9.414;2022-12-07T00:43:23;10.18;;;6.10;;
76656;SDS011;65576;47.714;9.414;2022-12-07T00:45:48;5.38;;;3.75;;
76656;SDS011;65576;47.714;9.414;2022-12-07T00:48:13;8.98;;;5.45;;
76656;SDS011;65576;47.714;9.414;2022-12-07T00:50:39;8.80;;;6.13;;
76656;SDS011;65576;47.714;9.414;2022-12-07T00:53:04;12.45;;;6.18;;
76656;SDS011;65576;47.714;9.414;2022-12-07T00:55:32;8.13;;;5.50;;
76656;SDS011;65576;47.714;9.414;2022-12-07T00:57:58;7.80;;;5.60;;
76656;SDS011;65576;47.714;9.414;2022-12-07T01:00:23;13.38;;;6.43;;
76656;SDS011;65576;47.714;9.414;2022-12-07T01:02:48;5.90;;;5.07;;
76656;SDS011;65576;47.714;9.414;2022-12-07T01:05:14;12.02;;;5.13;;
76656;SDS011;65576;47.714;9.414;2022-12-07T01:07:39;6.05;;;3.58;;
76656;SDS011;65576;47.714;9.414;2022-12-07T01:10:04;7.57;;;5.75;;
76656;SDS011;65576;47.714;9.414;2022-12-07T01:12:31;5.10;;;4.30;;
76656;SDS011;65576;47.714;9.414;2022-12-07T01:14:56;9.15;;;5.80;;
76656;SDS011;65576;47.714;9.414;2022-12-07T01:17:21;11.80;;;7.20;;
76656;SDS011;65576;47.714;9.414;2022-12-07T01:19:46;8.93;;;5.57;;
76656;SDS011;65576;47.714;9.414;2022-12-07T01:22:12;11.63;;;4.22;;
76656;SDS011;65576;47.714;9.414;2022-12-07T01:24:37;12.02;;;6.68;;
76656;SDS011;65576;47.714;9.414;2022-12-07T01:27:02;13.65;;;6.95;;
76656;SDS011;65576;47.714;9.414;2022-12-07T01:29:27;15.35;;;6.88;;
76656;SDS011;65576;47.714;9.414;2022-12-07T01:31:53;11.30;;;5.45;;
76656;SDS011;65576;47.714;9.414;2022-12-07T01:34:18;9.93;;;5.35;;
76656;SDS011;65576;47.714;9.414;2022-12-07T01:36:43;7.10;;;4.97;;
76656;SDS011;65576;47.714;9.414;2022-12-07T01:39:09;10.23;;;5.78;;
76656;SDS011;65576;47.714;9.414;2022-12-07T01:41:37;8.73;;;5.03;;
76656;SDS011;65576;47.714;9.414;2022-12-07T01:44:12;9.45;;;5.90;;
76656;SDS011;65576;47.714;9.414;2022-12-07T01:46:42;8.45;;;5.82;;
76656;SDS011;65576;47.714;9.414;2022-12-07T01:49:10;8.50;;;4.82;;
76656;SDS011;65576;47.714;9.414;2022-12-07T01:51:40;9.27;;;5.45;;
76656;SDS011;65576;47.714;9.414;2022-12-07T01:54:07;7.80;;;4.95;;
76656;SDS011;65576;47.714;9.414;2022-12-07T01:56:33;13.02;;;6.05;;
76656;SDS011;65576;47.714;9.414;2022-12-07T01:58:58;9.75;;;5.20;;
76656;SDS011;65576;47.714;9.414;2022-12-07T02:01:25;9.05;;;4.90;;
76656;SDS011;65576;47.714;9.414;2022-12-07T02:03:50;8.88;;;5.57;;
76656;SDS011;65576;47.714;9.414;2022-12-07T02:06:18;6.82;;;4.70;;
76656;SDS011;65576;47.714;9.414;2022-12-07T02:08:47;9.18;;;4.53;;
76656;SDS011;65576;47.714;9.414;2022-12-07T02:11:12;11.77;;;5.43;;
76656;SDS011;65576;47.714;9.414;2022-12-07T02:13:38;10.65;;;5.85;;
76656;SDS011;65576;47.714;9.414;2022-12-07T02:16:25;15.55;;;5.50;;
76656;SDS011;65576;47.714;9.414;2022-12-07T02:28:18;6.05;;;3.45;;
76656;SDS011;65576;47.714;9.414;2022-12-07T02:30:54;7.10;;;4.75;;
76656;SDS011;65576;47.714;9.414;2022-12-07T02:33:28;9.85;;;4.70;;
76656;SDS011;65576;47.714;9.414;2022-12-07T02:36:09;7.68;;;4.78;;
76656;SDS011;65576;47.714;9.414;2022-12-07T02:38:40;12.40;;;5.72;;
76656;SDS011;65576;47.714;9.414;2022-12-07T02:41:13;10.68;;;3.90;;
76656;SDS011;65576;47.714;9.414;2022-12-07T02:43:45;9.57;;;5.70;;
76656;SDS011;65576;47.714;9.414;2022-12-07T02:46:14;9.95;;;4.88;;
76656;SDS011;65576;47.714;9.414;2022-12-07T02:48:44;7.07;;;4.65;;
76656;SDS011;65576;47.714;9.414;2022-12-07T02:51:11;18.65;;;6.47;;
76656;SDS011;65576;47.714;9.414;2022-12-07T02:53:41;8.65;;;4.20;;
76656;SDS011;65576;47.714;9.414;2022-12-07T03:07:06;9.98;;;5.15;;
76656;SDS011;65576;47.714;9.414;2022-12-07T03:09:46;5.43;;;3.97;;
76656;SDS011;65576;47.714;9.414;2022-12-07T03:12:26;6.18;;;3.83;;
76656;SDS011;65576;47.714;9.414;2022-12-07T03:15:02;11.68;;;4.47;;
76656;SDS011;65576;47.714;9.414;2022-12-07T03:17:32;6.22;;;4.55;;
76656;SDS011;65576;47.714;9.414;2022-12-07T03:20:02;10.23;;;4.80;;
76656;SDS011;65576;47.714;9.414;2022-12-07T03:22:31;10.23;;;3.33;;
76656;SDS011;65576;47.714;9.414;2022-12-07T03:25:01;15.85;;;6.30;;
76656;SDS011;65576;47.714;9.414;2022-12-07T03:27:31;16.95;;;5.60;;
76656;SDS011;65576;47.714;9.414;2022-12-07T03:30:14;10.88;;;5.78;;
76656;SDS011;65576;47.714;9.414;2022-12-07T03:37:50;10.77;;;5.55;;
76656;SDS011;65576;47.714;9.414;2022-12-07T03:40:23;6.50;;;4.45;;
76656;SDS011;65576;47.714;9.414;2022-12-07T03:42:53;4.60;;;3.38;;
76656;SDS011;65576;47.714;9.414;2022-12-07T03:45:21;8.25;;;3.65;;
76656;SDS011;65576;47.714;9.414;2022-12-07T03:48:00;8.25;;;4.65;;
76656;SDS011;65576;47.714;9.414;2022-12-07T03:50:36;6.75;;;5.13;;
76656;SDS011;65576;47.714;9.414;2022-12-07T03:53:08;10.40;;;5.40;;
76656;SDS011;65576;47.714;9.414;2022-12-07T03:55:39;9.85;;;5.03;;
76656;SDS011;65576;47.714;9.414;2022-12-07T03:58:10;12.02;;;5.53;;
76656;SDS011;65576;47.714;9.414;2022-12-07T04:00:38;8.93;;;4.82;;
76656;SDS011;65576;47.714;9.414;2022-12-07T04:03:06;14.95;;;7.25;;
76656;SDS011;65576;47.714;9.414;2022-12-07T04:05:31;13.55;;;6.60;;
76656;SDS011;65576;47.714;9.414;2022-12-07T04:07:57;5.55;;;3.80;;
76656;SDS011;65576;47.714;9.414;2022-12-07T04:10:22;10.55;;;4.57;;
76656;SDS011;65576;47.714;9.414;2022-12-07T04:12:47;19.52;;;6.57;;
76656;SDS011;65576;47.714;9.414;2022-12-07T04:15:12;6.30;;;4.32;;
76656;SDS011;65576;47.714;9.414;2022-12-07T04:17:38;6.82;;;4.65;;
76656;SDS011;65576;47.714;9.414;2022-12-07T04:20:03;7.90;;;4.72;;
76656;SDS011;65576;47.714;9.414;2022-12-07T04:22:29;10.93;;;5.28;;
76656;SDS011;65576;47.714;9.414;2022-12-07T04:24:55;7.30;;;3.92;;
76656;SDS011;65576;47.714;9.414;2022-12-07T04:27:20;8.52;;;5.13;;
76656;SDS011;65576;47.714;9.414;2022-12-07T04:29:45;10.00;;;4.90;;
76656;SDS011;65576;47.714;9.414;2022-12-07T04:32:10;11.52;;;4.65;;
76656;SDS011;65576;47.714;9.414;2022-12-07T04:34:36;9.20;;;6.28;;
76656;SDS011;65576;47.714;9.414;2022-12-07T04:37:01;17.92;;;6.13;;
76656;SDS011;65576;47.714;9.414;2022-12-07T04:39:30;9.88;;;4.68;;
76656;SDS011;65576;47.714;9.414;2022-12-07T04:41:57;10.03;;;5.70;;
76656;SDS011;65576;47.714;9.414;2022-12-07T04:44:23;10.18;;;4.75;;
76656;SDS011;65576;47.714;9.414;2022-12-07T04:46:50;6.50;;;4.05;;
76656;SDS011;65576;47.714;9.414;2022-12-07T04:49:16;11.07;;;5.35;;
76656;SDS011;65576;47.714;9.414;2022-12-07T04:51:42;17.20;;;5.22;;
76656;SDS011;65576;47.714;9.414;2022-12-07T04:54:08;10.82;;;5.85;;
76656;SDS011;65576;47.714;9.414;2022-12-07T04:56:34;9.20;;;4.85;;
76656;SDS011;65576;47.714;9.414;2022-12-07T04:59:00;14.43;;;5.00;;
76656;SDS011;65576;47.714;9.414;2022-12-07T05:01:26;8.80;;;5.25;;
76656;SDS011;65576;47.714;9.414;2022-12-07T05:03:51;13.63;;;5.93;;
76656;SDS011;65576;47.714;9.414;2022-12-07T05:06:17;7.75;;;5.20;;
76656;SDS011;65576;47.714;9.414;2022-12-07T05:08:42;9.23;;;4.00;;
76656;SDS011;65576;47.714;9.414;2022-12-07T05:11:08;6.47;;;4.45;;
76656;SDS011;65576;47.714;9.414;2022-12-07T05:13:35;9.52;;;4.95;;
76656;SDS011;65576;47.714;9.414;2022-12-07T05:16:01;9.00;;;5.03;;
76656;SDS011;65576;47.714;9.414;2022-12-07T05:18:26;10.45;;;6.07;;
76656;SDS011;65576;47.714;9.414;2022-12-07T05:20:52;6.30;;;4.60;;
76656;SDS011;65576;47.714;9.414;2022-12-07T05:23:17;4.50;;;3.35;;
76656;SDS011;65576;47.714;9.414;2022-12-07T05:25:43;6.60;;;3.47;;
76656;SDS011;65576;47.714;9.414;2022-12-07T05:28:09;6.20;;;3.63;;
76656;SDS011;65576;47.714;9.414;2022-12-07T05:30:34;4.57;;;3.95;;
76656;SDS011;65576;47.714;9.414;2022-12-07T05:33:00;9.52;;;4.40;;
76656;SDS011;65576;47.714;9.414;2022-12-07T05:35:25;13.38;;;6.07;;
76656;SDS011;65576;47.714;9.414;2022-12-07T05:37:51;15.05;;;4.70;;
76656;SDS011;65576;47.714;9.414;2022-12-07T05:40:16;14.07;;;5.82;;
76656;SDS011;65576;47.714;9.414;2022-12-07T05:42:42;7.55;;;5.63;;
76656;SDS011;65576;47.714;9.414;2022-12-07T05:45:08;10.98;;;6.07;;
76656;SDS011;65576;47.714;9.414;2022-12-07T05:47:34;8.88;;;4.97;;
76656;SDS011;65576;47.714;9.414;2022-12-07T05:50:00;9.55;;;5.53;;
76656;SDS011;65576;47.714;9.414;2022-12-07T05:52:25;11.50;;;6.03;;
76656;SDS011;65576;47.714;9.414;2022-12-07T05:54:50;11.80;;;4.63;;
76656;SDS011;65576;47.714;9.414;2022-12-07T05:57:16;12.75;;;5.70;;
76656;SDS011;65576;47.714;9.414;2022-12-07T05:59:41;5.10;;;4.35;;
76656;SDS011;65576;47.714;9.414;2022-12-07T06:02:07;8.35;;;4.70;;
76656;SDS011;65576;47.714;9.414;2022-12-07T06:04:38;13.30;;;6.37;;
76656;SDS011;65576;47.714;9.414;2022-12-07T06:07:05;13.00;;;6.53;;
76656;SDS011;65576;47.714;9.414;2022-12-07T06:09:31;11.23;;;7.10;;
76656;SDS011;65576;47.714;9.414;2022-12-07T06:11:57;7.88;;;4.50;;
76656;SDS011;65576;47.714;9.414;2022-12-07T06:14:41;10.13;;;3.95;;
76656;SDS011;65576;47.714;9.414;2022-12-07T06:17:07;4.45;;;2.67;;
76656;SDS011;65576;47.714;9.414;2022-12-07T06:19:32;11.05;;;5.63;;
76656;SDS011;65576;47.714;9.414;2022-12-07T06:21:58;10.18;;;5.82;;
76656;SDS011;65576;47.714;9.414;2022-12-07T06:24:23;5.97;;;4.78;;
76656;SDS011;65576;47.714;9.414;2022-12-07T06:26:49;9.30;;;5.35;;
76656;SDS011;65576;47.714;9.414;2022-12-07T06:29:14;5.80;;;4.30;;
76656;SDS011;65576;47.714;9.414;2022-12-07T06:31:43;6.60;;;4.65;;
76656;SDS011;65576;47.714;9.414;2022-12-07T06:34:09;4.68;;;3.90;;
76656;SDS011;65576;47.714;9.414;2022-12-07T06:36:37;9.35;;;4.18;;
76656;SDS011;65576;47.714;9.414;2022-12-07T06:39:02;9.88;;;4.85;;
76656;SDS011;65576;47.714;9.414;2022-12-07T06:41:28;10.93;;;6.13;;
76656;SDS011;65576;47.714;9.414;2022-12-07T06:43:53;11.40;;;5.68;;
76656;SDS011;65576;47.714;9.414;2022-12-07T06:46:18;11.85;;;4.15;;
76656;SDS011;65576;47.714;9.414;2022-12-07T06:48:43;11.50;;;5.20;;
76656;SDS011;65576;47.714;9.414;2022-12-07T06:51:09;10.52;;;5.82;;
76656;SDS011;65576;47.714;9.414;2022-12-07T06:53:35;12.63;;;4.60;;
76656;SDS011;65576;47.714;9.414;2022-12-07T06:56:01;10.75;;;5.38;;
76656;SDS011;65576;47.714;9.414;2022-12-07T06:58:27;12.55;;;6.28;;
76656;SDS011;65576;47.714;9.414;2022-12-07T07:00:52;10.80;;;4.40;;
76656;SDS011;65576;47.714;9.414;2022-12-07T07:03:18;9.05;;;4.43;;
76656;SDS011;65576;47.714;9.414;2022-12-07T07:05:43;17.05;;;5.53;;
76656;SDS011;65576;47.714;9.414;2022-12-07T07:08:09;9.32;;;6.53;;
76656;SDS011;65576;47.714;9.414;2022-12-07T07:10:35;5.20;;;4.10;;
76656;SDS011;65576;47.714;9.414;2022-12-07T07:13:01;5.80;;;3.33;;
76656;SDS011;65576;47.714;9.414;2022-12-07T07:15:27;9.82;;;5.40;;
76656;SDS011;65576;47.714;9.414;2022-12-07T07:17:52;6.40;;;4.18;;
76656;SDS011;65576;47.714;9.414;2022-12-07T07:20:18;8.30;;;5.35;;
76656;SDS011;65576;47.714;9.414;2022-12-07T07:22:43;6.43;;;4.25;;
76656;SDS011;65576;47.714;9.414;2022-12-07T07:25:09;8.25;;;4.03;;
76656;SDS011;65576;47.714;9.414;2022-12-07T07:27:34;13.88;;;6.35;;
76656;SDS011;65576;47.714;9.414;2022-12-07T07:29:59;13.65;;;5.22;;
76656;SDS011;65576;47.714;9.414;2022-12-07T07:32:24;6.03;;;4.63;;
76656;SDS011;65576;47.714;9.414;2022-12-07T07:34:50;7.30;;;4.00;;
76656;SDS011;65576;47.714;9.414;2022-12-07T07:37:15;10.15;;;5.22;;
76656;SDS011;65576;47.714;9.414;2022-12-07T07:39:40;13.00;;;4.78;;
76656;SDS011;65576;47.714;9.414;2022-12-07T07:42:06;6.55;;;5.03;;
76656;SDS011;65576;47.714;9.414;2022-12-07T07:44:32;5.55;;;3.67;;
76656;SDS011;65576;47.714;9.414;2022-12-07T07:46:58;9.70;;;3.85;;
76656;SDS011;65576;47.714;9.414;2022-12-07T07:49:23;12.65;;;4.90;;
76656;SDS011;65576;47.714;9.414;2022-12-07T07:51:48;12.80;;;5.43;;
76656;SDS011;65576;47.714;9.414;2022-12-07T07:54:14;11.10;;;5.60;;
76656;SDS011;65576;47.714;9.414;2022-12-07T07:56:39;10.45;;;4.97;;
76656;SDS011;65576;47.714;9.414;2022-12-07T07:59:04;13.15;;;7.03;;
76656;SDS011;65576;47.714;9.414;2022-12-07T08:01:29;15.88;;;6.25;;
76656;SDS011;65576;47.714;9.414;2022-12-07T08:03:55;11.88;;;5.90;;
76656;SDS011;65576;47.714;9.414;2022-12-07T08:06:20;10.02;;;4.90;;
76656;SDS011;65576;47.714;9.414;2022-12-07T08:08:45;13.30;;;5.80;;
76656;SDS011;65576;47.714;9.414;2022-12-07T08:11:11;15.43;;;5.50;;
76656;SDS011;65576;47.714;9.414;2022-12-07T08:13:36;6.07;;;3.72;;
76656;SDS011;65576;47.714;9.414;2022-12-07T08:16:05;9.45;;;5.40;;
76656;SDS011;65576;47.714;9.414;2022-12-07T08:18:37;5.10;;;3.83;;
76656;SDS011;65576;47.714;9.414;2022-12-07T08:21:03;11.27;;;5.10;;
76656;SDS011;65576;47.714;9.414;2022-12-07T08:23:29;8.70;;;5.93;;
76656;SDS011;65576;47.714;9.414;2022-12-07T08:25:55;6.93;;;4.63;;
76656;SDS011;65576;47.714;9.414;2022-12-07T08:28:25;18.48;;;6.13;;
76656;SDS011;65576;47.714;9.414;2022-12-07T08:30:50;18.88;;;6.88;;
76656;SDS011;65576;47.714;9.414;2022-12-07T08:33:15;10.48;;;4.75;;
76656;SDS011;65576;47.714;9.414;2022-12-07T08:35:41;8.68;;;4.38;;
76656;SDS011;65576;47.714;9.414;2022-12-07T08:38:06;9.63;;;5.03;;
76656;SDS011;65576;47.714;9.414;2022-12-07T08:40:31;5.80;;;4.55;;
76656;SDS011;65576;47.714;9.414;2022-12-07T08:42:56;8.07;;;5.15;;
76656;SDS011;65576;47.714;9.414;2022-12-07T08:45:22;9.27;;;4.03;;
76656;SDS011;65576;47.714;9.414;2022-12-07T08:50:18;8.20;;;4.85;;
76656;SDS011;65576;47.714;9.414;2022-12-07T08:52:44;6.47;;;4.40;;
76656;SDS011;65576;47.714;9.414;2022-12-07T08:55:13;11.65;;;5.13;;
76656;SDS011;65576;47.714;9.414;2022-12-07T08:57:39;9.73;;;4.45;;
76656;SDS011;65576;47.714;9.414;2022-12-07T09:00:04;5.78;;;3.25;;
76656;SDS011;65576;47.714;9.414;2022-12-07T09:02:31;8.73;;;4.65;;
76656;SDS011;65576;47.714;9.414;2022-12-07T09:04:57;11.48;;;4.05;;
76656;SDS011;65576;47.714;9.414;2022-12-07T09:07:22;6.32;;;4.10;;
76656;SDS011;65576;47.714;9.414;2022-12-07T09:09:48;4.80;;;2.55;;
76656;SDS011;65576;47.714;9.414;2022-12-07T09:12:13;6.82;;;4.47;;
76656;SDS011;65576;47.714;9.414;2022-12-07T09:14:38;6.93;;;3.63;;
76656;SDS011;65576;47.714;9.414;2022-12-07T09:17:10;5.28;;;3.78;;
76656;SDS011;65576;47.714;9.414;2022-12-07T09:19:37;9.18;;;4.28;;
76656;SDS011;65576;47.714;9.414;2022-12-07T09:22:03;5.97;;;3.80;;
76656;SDS011;65576;47.714;9.414;2022-12-07T09:24:30;4.88;;;2.95;;
76656;SDS011;65576;47.714;9.414;2022-12-07T09:26:56;8.02;;;3.92;;
76656;SDS011;65576;47.714;9.414;2022-12-07T09:29:22;12.07;;;4.90;;
76656;SDS011;65576;47.714;9.414;2022-12-07T09:31:47;6.22;;;4.20;;
76656;SDS011;65576;47.714;9.414;2022-12-07T09:34:12;5.82;;;3.42;;
76656;SDS011;65576;47.714;9.414;2022-12-07T09:36:37;2.47;;;2.28;;
76656;SDS011;65576;47.714;9.414;2022-12-07T09:39:03;2.55;;;2.35;;
76656;SDS011;65576;47.714;9.414;2022-12-07T09:41:30;4.97;;;3.08;;
76656;SDS011;65576;47.714;9.414;2022-12-07T09:44:06;6.57;;;2.97;;
76656;SDS011;65576;47.714;9.414;2022-12-07T09:46:38;4.93;;;3.28;;
76656;SDS011;65576;47.714;9.414;2022-12-07T09:49:08;3.92;;;2.75;;
76656;SDS011;65576;47.714;9.414;2022-12-07T09:51:37;5.15;;;2.55;;
76656;SDS011;65576;47.714;9.414;2022-12-07T09:54:02;5.88;;;3.08;;
76656;SDS011;65576;47.714;9.414;2022-12-07T09:56:29;2.35;;;1.92;;
76656;SDS011;65576;47.714;9.414;2022-12-07T09:58:58;3.78;;;2.60;;
76656;SDS011;65576;47.714;9.414;2022-12-07T10:01:29;1.73;;;1.42;;
76656;SDS011;65576;47.714;9.414;2022-12-07T10:04:10;2.58;;;1.75;;
76656;SDS011;65576;47.714;9.414;2022-12-07T10:06:39;2.67;;;2.22;;
76656;SDS011;65576;47.714;9.414;2022-12-07T10:09:14;3.63;;;3.00;;
76656;SDS011;65576;47.714;9.414;2022-12-07T10:14:25;5.18;;;2.15;;
76656;SDS011;65576;47.714;9.414;2022-12-07T10:16:53;2.22;;;1.70;;
76656;SDS011;65576;47.714;9.414;2022-12-07T10:19:20;2.90;;;1.85;;
76656;SDS011;65576;47.714;9.414;2022-12-07T10:24:40;5.18;;;3.03;;
76656;SDS011;65576;47.714;9.414;2022-12-07T10:27:29;3.42;;;2.10;;
76656;SDS011;65576;47.714;9.414;2022-12-07T10:29:56;4.45;;;2.10;;
76656;SDS011;65576;47.714;9.414;2022-12-07T10:32:32;1.90;;;1.52;;
76656;SDS011;65576;47.714;9.414;2022-12-07T10:37:46;1.40;;;0.98;;
76656;SDS011;65576;47.714;9.414;2022-12-07T10:40:23;6.13;;;2.92;;
76656;SDS011;65576;47.714;9.414;2022-12-07T10:42:59;2.45;;;2.03;;
76656;SDS011;65576;47.714;9.414;2022-12-07T10:48:51;4.05;;;2.33;;
76656;SDS011;65576;47.714;9.414;2022-12-07T10:51:55;4.05;;;2.55;;
76656;SDS011;65576;47.714;9.414;2022-12-07T11:05:53;2.03;;;1.83;;
76656;SDS011;65576;47.714;9.414;2022-12-07T11:11:13;2.42;;;1.88;;
76656;SDS011;65576;47.714;9.414;2022-12-07T11:13:47;1.30;;;1.17;;
76656;SDS011;65576;47.714;9.414;2022-12-07T11:16:23;3.40;;;2.58;;
76656;SDS011;65576;47.714;9.414;2022-12-07T11:18:59;3.58;;;1.45;;
76656;SDS011;65576;47.714;9.414;2022-12-07T11:21:39;4.63;;;2.95;;
76656;SDS011;65576;47.714;9.414;2022-12-07T11:24:19;3.92;;;2.58;;
76656;SDS011;65576;47.714;9.414;2022-12-07T11:27:05;4.43;;;2.45;;
76656;SDS011;65576;47.714;9.414;2022-12-07T11:29:58;2.40;;;2.20;;
76656;SDS011;65576;47.714;9.414;2022-12-07T11:32:44;4.15;;;2.53;;
76656;SDS011;65576;47.714;9.414;2022-12-07T11:37:51;2.30;;;2.10;;
76656;SDS011;65576;47.714;9.414;2022-12-07T11:40:26;4.60;;;2.90;;
76656;SDS011;65576;47.714;9.414;2022-12-07T11:43:04;2.10;;;1.88;;
76656;SDS011;65576;47.714;9.414;2022-12-07T11:45:37;2.70;;;2.50;;
76656;SDS011;65576;47.714;9.414;2022-12-07T11:48:09;3.78;;;2.47;;
76656;SDS011;65576;47.714;9.414;2022-12-07T11:50:45;5.88;;;2.58;;
76656;SDS011;65576;47.714;9.414;2022-12-07T11:53:22;7.18;;;2.33;;
76656;SDS011;65576;47.714;9.414;2022-12-07T11:55:56;3.75;;;2.50;;
76656;SDS011;65576;47.714;9.414;2022-12-07T12:01:18;7.20;;;3.30;;
76656;SDS011;65576;47.714;9.414;2022-12-07T12:06:34;7.72;;;3.72;;
76656;SDS011;65576;47.714;9.414;2022-12-07T12:19:45;2.83;;;2.55;;
76656;SDS011;65576;47.714;9.414;2022-12-07T12:22:38;2.00;;;1.70;;
76656;SDS011;65576;47.714;9.414;2022-12-07T12:25:07;5.60;;;3.45;;
76656;SDS011;65576;47.714;9.414;2022-12-07T12:27:46;4.43;;;3.33;;
76656;SDS011;65576;47.714;9.414;2022-12-07T12:33:25;5.35;;;2.90;;
76656;SDS011;65576;47.714;9.414;2022-12-07T12:49:32;2.70;;;1.85;;
76656;SDS011;65576;47.714;9.414;2022-12-07T12:54:39;8.20;;;3.05;;
76656;SDS011;65576;47.714;9.414;2022-12-07T12:57:28;5.10;;;3.08;;
76656;SDS011;65576;47.714;9.414;2022-12-07T12:59:59;6.93;;;3.13;;
76656;SDS011;65576;47.714;9.414;2022-12-07T13:02:28;2.22;;;1.80;;
76656;SDS011;65576;47.714;9.414;2022-12-07T13:10:20;4.82;;;2.33;;
76656;SDS011;65576;47.714;9.414;2022-12-07T13:20:55;2.38;;;2.17;;
76656;SDS011;65576;47.714;9.414;2022-12-07T13:26:18;2.08;;;1.58;;
76656;SDS011;65576;47.714;9.414;2022-12-07T13:29:35;2.05;;;1.48;;
76656;SDS011;65576;47.714;9.414;2022-12-07T13:31:36;4.63;;;2.92;;
76656;SDS011;65576;47.714;9.414;2022-12-07T13:34:04;2.55;;;1.60;;
76656;SDS011;65576;47.714;9.414;2022-12-07T13:36:50;7.45;;;3.70;;
76656;SDS011;65576;47.714;9.414;2022-12-07T13:39:23;4.63;;;2.42;;
76656;SDS011;65576;47.714;9.414;2022-12-07T13:42:06;2.95;;;2.28;;
76656;SDS011;65576;47.714;9.414;2022-12-07T13:44:34;4.05;;;3.35;;
76656;SDS011;65576;47.714;9.414;2022-12-07T13:49:50;3.40;;;1.98;;
76656;SDS011;65576;47.714;9.414;2022-12-07T13:52:27;3.55;;;2.85;;
76656;SDS011;65576;47.714;9.414;2022-12-07T13:57:24;4.65;;;2.63;;
76656;SDS011;65576;47.714;9.414;2022-12-07T13:59:50;5.35;;;2.83;;
76656;SDS011;65576;47.714;9.414;2022-12-07T14:02:27;8.07;;;2.75;;
76656;SDS011;65576;47.714;9.414;2022-12-07T14:05:14;3.78;;;2.15;;
76656;SDS011;65576;47.714;9.414;2022-12-07T14:07:57;1.60;;;1.50;;
76656;SDS011;65576;47.714;9.414;2022-12-07T14:10:25;2.63;;;1.52;;
76656;SDS011;65576;47.714;9.414;2022-12-07T14:12:52;3.05;;;2.53;;
76656;SDS011;65576;47.714;9.414;2022-12-07T14:15:22;3.35;;;2.28;;
76656;SDS011;65576;47.714;9.414;2022-12-07T14:17:52;4.97;;;3.35;;
76656;SDS011;65576;47.714;9.414;2022-12-07T14:20:29;3.15;;;2.00;;
76656;SDS011;65576;47.714;9.414;2022-12-07T14:22:58;4.50;;;2.72;;
76656;SDS011;65576;47.714;9.414;2022-12-07T14:25:24;3.13;;;2.40;;
76656;SDS011;65576;47.714;9.414;2022-12-07T14:27:56;3.60;;;2.40;;
76656;SDS011;65576;47.714;9.414;2022-12-07T14:30:24;4.70;;;2.95;;
76656;SDS011;65576;47.714;9.414;2022-12-07T14:32:58;2.72;;;2.25;;
76656;SDS011;65576;47.714;9.414;2022-12-07T14:35:25;2.95;;;2.28;;
76656;SDS011;65576;47.714;9.414;2022-12-07T14:37:51;3.20;;;1.95;;
76656;SDS011;65576;47.714;9.414;2022-12-07T14:40:17;2.33;;;1.75;;
76656;SDS011;65576;47.714;9.414;2022-12-07T14:42:48;4.22;;;2.80;;
76656;SDS011;65576;47.714;9.414;2022-12-07T14:45:18;5.50;;;2.55;;
76656;SDS011;65576;47.714;9.414;2022-12-07T14:47:45;10.70;;;4.05;;
76656;SDS011;65576;47.714;9.414;2022-12-07T14:50:12;2.85;;;2.28;;
76656;SDS011;65576;47.714;9.414;2022-12-07T14:52:43;3.22;;;2.45;;
76656;SDS011;65576;47.714;9.414;2022-12-07T14:55:23;3.40;;;2.13;;
76656;SDS011;65576;47.714;9.414;2022-12-07T14:57:53;3.30;;;2.72;;
76656;SDS011;65576;47.714;9.414;2022-12-07T15:00:20;4.00;;;2.33;;
76656;SDS011;65576;47.714;9.414;2022-12-07T15:02:46;4.03;;;3.42;;
76656;SDS011;65576;47.714;9.414;2022-12-07T15:05:13;6.78;;;4.13;;
76656;SDS011;65576;47.714;9.414;2022-12-07T15:07:39;3.45;;;2.50;;
76656;SDS011;65576;47.714;9.414;2022-12-07T15:10:05;2.80;;;1.55;;
76656;SDS011;65576;47.714;9.414;2022-12-07T15:12:31;7.40;;;4.95;;
76656;SDS011;65576;47.714;9.414;2022-12-07T15:14:57;8.00;;;3.83;;
76656;SDS011;65576;47.714;9.414;2022-12-07T15:17:22;4.45;;;3.17;;
76656;SDS011;65576;47.714;9.414;2022-12-07T15:19:47;4.15;;;3.28;;
76656;SDS011;65576;47.714;9.414;2022-12-07T15:22:13;2.30;;;1.95;;
76656;SDS011;65576;47.714;9.414;2022-12-07T15:24:38;3.30;;;2.47;;
76656;SDS011;65576;47.714;9.414;2022-12-07T15:27:03;3.15;;;2.08;;
76656;SDS011;65576;47.714;9.414;2022-12-07T15:29:29;6.15;;;2.40;;
76656;SDS011;65576;47.714;9.414;2022-12-07T15:31:54;5.35;;;2.97;;
76656;SDS011;65576;47.714;9.414;2022-12-07T15:34:19;7.95;;;3.45;;
76656;SDS011;65576;47.714;9.414;2022-12-07T15:36:45;2.30;;;2.03;;
76656;SDS011;65576;47.714;9.414;2022-12-07T15:39:10;6.68;;;4.15;;
76656;SDS011;65576;47.714;9.414;2022-12-07T15:41:36;3.97;;;2.47;;
76656;SDS011;65576;47.714;9.414;2022-12-07T15:44:01;4.70;;;3.25;;
76656;SDS011;65576;47.714;9.414;2022-12-07T15:46:45;1.52;;;1.42;;
76656;SDS011;65576;47.714;9.414;2022-12-07T15:49:12;5.50;;;3.10;;
76656;SDS011;65576;47.714;9.414;2022-12-07T15:51:41;4.25;;;3.00;;
76656;SDS011;65576;47.714;9.414;2022-12-07T15:54:08;2.15;;;1.77;;
76656;SDS011;65576;47.714;9.414;2022-12-07T15:56:37;4.07;;;3.35;;
76656;SDS011;65576;47.714;9.414;2022-12-07T15:59:02;3.60;;;2.58;;
76656;SDS011;65576;47.714;9.414;2022-12-07T16:01:28;6.40;;;4.18;;
76656;SDS011;65576;47.714;9.414;2022-12-07T16:03:53;4.07;;;2.03;;
76656;SDS011;65576;47.714;9.414;2022-12-07T16:06:19;6.35;;;3.05;;
76656;SDS011;65576;47.714;9.414;2022-12-07T16:08:45;7.05;;;2.95;;
76656;SDS011;65576;47.714;9.414;2022-12-07T16:11:11;8.80;;;3.17;;
76656;SDS011;65576;47.714;9.414;2022-12-07T16:13:37;3.05;;;2.22;;
76656;SDS011;65576;47.714;9.414;2022-12-07T16:16:07;3.72;;;2.67;;
76656;SDS011;65576;47.714;9.414;2022-12-07T16:18:36;3.85;;;2.97;;
76656;SDS011;65576;47.714;9.414;2022-12-07T16:21:02;2.92;;;2.42;;
76656;SDS011;65576;47.714;9.414;2022-12-07T16:23:28;3.38;;;2.63;;
76656;SDS011;65576;47.714;9.414;2022-12-07T16:25:53;3.35;;;1.90;;
76656;SDS011;65576;47.714;9.414;2022-12-07T16:28:19;9.27;;;3.17;;
76656;SDS011;65576;47.714;9.414;2022-12-07T16:30:44;2.97;;;2.08;;
76656;SDS011;65576;47.714;9.414;2022-12-07T16:33:10;4.63;;;3.13;;
76656;SDS011;65576;47.714;9.414;2022-12-07T16:35:38;8.95;;;5.25;;
76656;SDS011;65576;47.714;9.414;2022-12-07T16:38:05;12.13;;;5.20;;
76656;SDS011;65576;47.714;9.414;2022-12-07T16:40:31;10.98;;;5.28;;
76656;SDS011;65576;47.714;9.414;2022-12-07T16:42:56;3.63;;;2.75;;
76656;SDS011;65576;47.714;9.414;2022-12-07T16:45:21;3.15;;;2.85;;